createdAt,value
2018-05-04T00:02:57.166Z,8.00
2018-05-04T00:06:21.502Z,7.83
2018-05-04T00:09:44.853Z,8.10
2018-05-04T00:13:08.177Z,7.77
2018-05-04T00:16:31.476Z,7.60
2018-05-04T00:19:54.792Z,8.00
2018-05-04T00:23:18.923Z,7.83
2018-05-04T00:26:42.290Z,8.30
2018-05-04T00:30:05.667Z,9.20
2018-05-04T00:33:29.714Z,8.53
2018-05-04T00:36:53.005Z,8.27
2018-05-04T00:40:16.340Z,9.37
2018-05-04T00:43:40.515Z,8.90
2018-05-04T00:47:03.785Z,8.80
2018-05-04T00:50:27.073Z,8.17
2018-05-04T00:54:07.952Z,8.97
2018-05-04T00:57:31.250Z,8.63
2018-05-04T01:00:54.586Z,8.60
2018-05-04T01:04:17.970Z,8.53
2018-05-04T01:07:41.314Z,8.67
2018-05-04T01:11:04.631Z,9.30
2018-05-04T01:14:28.686Z,9.03
2018-05-04T01:17:52.040Z,9.50
2018-05-04T01:21:15.318Z,10.10
2018-05-04T01:24:38.621Z,9.37
2018-05-04T01:28:01.954Z,9.17
2018-05-04T01:31:25.242Z,9.80
2018-05-04T01:34:48.540Z,9.90
2018-05-04T01:38:11.878Z,9.70
2018-05-04T01:41:35.176Z,9.70
2018-05-04T01:44:58.462Z,9.93
2018-05-04T01:48:21.828Z,9.90
2018-05-04T01:51:45.173Z,8.90
2018-05-04T01:55:08.477Z,9.50
2018-05-04T01:58:31.812Z,9.17
2018-05-04T02:01:55.093Z,9.30
2018-05-04T02:05:18.371Z,8.50
2018-05-04T02:08:41.670Z,9.10
2018-05-04T02:12:05.042Z,9.00
2018-05-04T02:15:28.385Z,9.47
2018-05-04T02:18:51.660Z,8.87
2018-05-04T02:22:14.953Z,8.40
2018-05-04T02:25:38.328Z,8.33
2018-05-04T02:29:01.662Z,8.60
2018-05-04T02:32:24.929Z,7.77
2018-05-04T02:35:49.041Z,8.40
2018-05-04T02:39:12.747Z,9.20
2018-05-04T02:42:36.036Z,8.43
2018-05-04T02:45:59.344Z,8.77
2018-05-04T02:49:23.408Z,8.60
2018-05-04T02:52:46.770Z,8.27
2018-05-04T02:56:10.101Z,8.70
2018-05-04T02:59:34.204Z,8.83
2018-05-04T03:02:57.499Z,8.43
2018-05-04T03:06:20.837Z,9.37
2018-05-04T03:09:44.193Z,9.67
2018-05-04T03:13:07.491Z,9.73
2018-05-04T03:16:30.779Z,9.57
2018-05-04T03:19:54.141Z,9.90
2018-05-04T03:23:17.468Z,10.73
2018-05-04T03:26:40.769Z,9.90
2018-05-04T03:30:04.131Z,11.50
2018-05-04T03:33:27.469Z,12.23
2018-05-04T03:36:50.785Z,13.13
2018-05-04T03:40:14.124Z,13.00
2018-05-04T03:43:37.422Z,12.27
2018-05-04T03:47:00.762Z,12.90
2018-05-04T03:50:24.078Z,14.00
2018-05-04T03:53:47.403Z,14.90
2018-05-04T03:57:28.699Z,14.00
2018-05-04T04:01:09.634Z,14.33
2018-05-04T04:04:33.845Z,14.30
2018-05-04T04:07:57.171Z,14.70
2018-05-04T04:11:21.282Z,14.40
2018-05-04T04:14:44.628Z,14.97
2018-05-04T04:18:07.916Z,14.53
2018-05-04T04:21:31.231Z,14.60
2018-05-04T04:24:55.266Z,14.87
2018-05-04T04:28:19.489Z,15.40
2018-05-04T04:31:43.462Z,15.37
2018-05-04T04:35:06.771Z,15.37
2018-05-04T04:38:30.906Z,16.43
2018-05-04T04:41:54.277Z,17.03
2018-05-04T04:45:17.606Z,17.17
2018-05-04T04:48:40.881Z,16.23
2018-05-04T04:52:04.191Z,16.40
2018-05-04T04:55:27.526Z,17.70
2018-05-04T04:58:50.835Z,16.87
2018-05-04T05:02:14.159Z,17.10
2018-05-04T05:05:37.473Z,16.43
2018-05-04T05:09:00.848Z,16.03
2018-05-04T05:12:24.907Z,16.67
2018-05-04T05:15:48.328Z,16.57
2018-05-04T05:19:11.703Z,16.37
2018-05-04T05:22:35.044Z,16.13
2018-05-04T05:25:58.351Z,16.30
2018-05-04T05:29:22.481Z,16.13
2018-05-04T05:32:45.784Z,16.40
2018-05-04T05:36:09.151Z,17.63
2018-05-04T05:39:33.213Z,16.47
2018-05-04T05:42:56.586Z,16.50
2018-05-04T05:46:19.936Z,17.90
2018-05-04T05:49:43.311Z,16.63
2018-05-04T05:53:07.436Z,17.00
2018-05-04T05:56:30.802Z,16.80
2018-05-04T05:59:54.159Z,17.07
2018-05-04T06:03:17.511Z,17.93
2018-05-04T06:06:40.890Z,17.00
2018-05-04T06:10:05.795Z,17.33
2018-05-04T06:13:29.104Z,17.73
2018-05-04T06:16:52.407Z,18.13
2018-05-04T06:20:15.751Z,18.00
2018-05-04T06:23:39.101Z,17.50
2018-05-04T06:27:02.406Z,17.93
2018-05-04T06:30:25.743Z,17.43
2018-05-04T06:33:49.056Z,18.37
2018-05-04T06:37:12.391Z,18.93
2018-05-04T06:40:35.740Z,18.07
2018-05-04T06:43:59.040Z,17.97
2018-05-04T06:47:22.387Z,17.87
2018-05-04T06:50:46.627Z,17.57
2018-05-04T06:54:09.979Z,17.90
2018-05-04T06:57:33.339Z,17.67
2018-05-04T07:00:56.711Z,18.17
2018-05-04T07:04:23.380Z,19.17
2018-05-04T07:07:48.104Z,18.10
2018-05-04T07:11:14.958Z,18.83
2018-05-04T07:14:38.934Z,19.40
2018-05-04T07:18:03.139Z,18.77
2018-05-04T07:21:26.466Z,18.23
2018-05-04T07:24:49.783Z,19.40
2018-05-04T07:28:14.310Z,18.77
2018-05-04T07:31:37.652Z,19.63
2018-05-04T07:35:00.961Z,18.93
2018-05-04T07:38:25.028Z,19.70
2018-05-04T07:41:48.976Z,18.40
2018-05-04T07:45:15.960Z,17.70
2018-05-04T07:48:39.456Z,19.47
2018-05-04T07:52:03.589Z,18.23
2018-05-04T07:55:27.707Z,19.40
2018-05-04T07:58:51.085Z,18.97
2018-05-04T08:02:15.118Z,18.33
2018-05-04T08:05:39.238Z,18.80
2018-05-04T08:09:02.565Z,19.33
2018-05-04T08:12:26.662Z,17.77
2018-05-04T08:15:49.955Z,18.40
2018-05-04T08:19:13.317Z,19.57
2018-05-04T08:22:36.763Z,19.17
2018-05-04T08:26:00.111Z,18.30
2018-05-04T08:29:23.443Z,19.77
2018-05-04T08:32:46.742Z,19.27
2018-05-04T08:36:10.088Z,20.17
2018-05-04T08:39:33.577Z,19.50
2018-05-04T08:42:58.016Z,19.97
2018-05-04T08:46:22.283Z,19.40
2018-05-04T08:49:45.719Z,19.00
2018-05-04T08:53:09.068Z,19.10
2018-05-04T08:56:32.421Z,18.60
2018-05-04T08:59:55.782Z,19.07
2018-05-04T09:03:19.131Z,19.43
2018-05-04T09:06:42.469Z,19.43
2018-05-04T09:10:05.817Z,19.80
2018-05-04T09:13:29.130Z,19.03
2018-05-04T09:16:52.495Z,19.27
2018-05-04T09:20:15.849Z,18.70
2018-05-04T09:23:40.364Z,18.63
2018-05-04T09:27:04.603Z,20.60
2018-05-04T09:30:27.945Z,18.90
2018-05-04T09:33:51.227Z,22.03
2018-05-04T09:37:14.588Z,20.63
2018-05-04T09:40:37.915Z,19.00
2018-05-04T09:44:02.011Z,21.00
2018-05-04T09:47:25.793Z,19.17
2018-05-04T09:50:51.942Z,20.87
2018-05-04T09:54:16.956Z,19.97
2018-05-04T09:57:40.289Z,19.50
2018-05-04T10:01:04.365Z,20.13
2018-05-04T10:04:27.701Z,19.97
2018-05-04T10:07:51.517Z,19.97
2018-05-04T10:11:17.011Z,22.10
2018-05-04T10:14:41.286Z,19.93
2018-05-04T10:18:11.243Z,20.87
2018-05-04T10:21:37.952Z,20.60
2018-05-04T10:25:06.983Z,21.30
2018-05-04T10:28:30.480Z,20.13
2018-05-04T10:31:53.851Z,19.67
2018-05-04T10:35:19.697Z,20.23
2018-05-04T10:38:43.054Z,19.30
2018-05-04T10:42:06.395Z,19.70
2018-05-04T10:45:30.445Z,20.20
2018-05-04T10:48:53.709Z,18.33
2018-05-04T10:52:17.035Z,19.90
2018-05-04T10:55:40.493Z,19.13
2018-05-04T10:59:04.607Z,18.37
2018-05-04T11:02:27.877Z,18.23
2018-05-04T11:05:51.197Z,16.23
2018-05-04T11:09:15.394Z,18.23
2018-05-04T11:12:38.718Z,17.80
2018-05-04T11:16:02.864Z,19.07
2018-05-04T11:19:27.008Z,17.40
2018-05-04T11:22:51.708Z,18.23
2018-05-04T11:26:15.833Z,17.40
2018-05-04T11:29:39.158Z,17.17
2018-05-04T11:33:02.470Z,16.63
2018-05-04T11:36:25.812Z,16.93
2018-05-04T11:39:49.106Z,17.07
2018-05-04T11:43:12.387Z,16.67
2018-05-04T11:46:35.682Z,15.90
2018-05-04T11:49:59.107Z,17.00
2018-05-04T11:53:22.586Z,15.53
2018-05-04T11:56:46.920Z,15.97
2018-05-04T12:00:10.258Z,16.87
2018-05-04T12:03:34.573Z,16.17
2018-05-04T12:07:04.224Z,16.33
2018-05-04T12:10:28.252Z,16.30
2018-05-04T12:13:51.928Z,14.70
2018-05-04T12:17:15.276Z,14.40
2018-05-04T12:20:38.608Z,15.30
2018-05-04T12:24:01.926Z,15.23
2018-05-04T12:27:25.258Z,15.57
2018-05-04T12:30:48.531Z,15.83
2018-05-04T12:34:11.872Z,15.57
2018-05-04T12:37:35.913Z,15.33
2018-05-04T12:40:59.287Z,14.80
2018-05-04T12:44:22.635Z,14.10
2018-05-04T12:47:45.984Z,14.50
2018-05-04T12:51:09.255Z,14.77
2018-05-04T12:54:32.571Z,14.40
2018-05-04T12:57:55.931Z,13.77
2018-05-04T13:01:19.273Z,14.53
2018-05-04T13:04:42.607Z,14.73
2018-05-04T13:08:05.981Z,14.40
2018-05-04T13:11:29.454Z,14.53
2018-05-04T13:14:52.785Z,14.87
2018-05-04T13:18:16.072Z,15.10
2018-05-04T13:21:39.556Z,14.80
2018-05-04T13:25:02.915Z,14.60
2018-05-04T13:28:26.358Z,14.90
2018-05-04T13:31:50.167Z,12.97
2018-05-04T13:35:15.325Z,16.27
2018-05-04T13:38:39.161Z,14.90
2018-05-04T13:42:03.561Z,14.03
2018-05-04T13:45:27.811Z,14.67
2018-05-04T13:48:51.874Z,13.73
2018-05-04T13:52:15.141Z,14.17
2018-05-04T13:55:38.557Z,14.50
2018-05-04T13:59:01.849Z,15.43
2018-05-04T14:02:25.843Z,14.57
2018-05-04T14:05:50.026Z,14.30
2018-05-04T14:09:13.326Z,13.37
2018-05-04T14:12:36.697Z,15.57
2018-05-04T14:16:00.026Z,14.47
2018-05-04T14:19:23.553Z,15.83
2018-05-04T14:22:46.889Z,15.10
2018-05-04T14:44:30.369Z,15.30
2018-05-04T14:47:53.764Z,16.40
2018-05-04T14:55:47.845Z,14.77
2018-05-04T14:59:11.979Z,14.60
2018-05-04T15:02:35.341Z,16.33
2018-05-04T15:05:58.681Z,15.67
2018-05-04T15:09:22.087Z,16.13
2018-05-04T15:12:45.465Z,14.83
2018-05-04T15:16:08.756Z,14.47
2018-05-04T15:19:32.091Z,16.13
2018-05-04T15:22:56.230Z,16.07
2018-05-04T15:26:20.661Z,16.33
2018-05-04T15:29:43.997Z,15.70
2018-05-04T15:33:07.439Z,15.10
2018-05-04T15:36:30.774Z,16.77
2018-05-04T15:39:54.116Z,16.10
2018-05-04T15:43:18.201Z,15.10
2018-05-04T15:46:41.547Z,15.27
2018-05-04T15:50:11.011Z,16.50
2018-05-04T15:53:35.122Z,16.47
2018-05-04T15:56:58.459Z,15.30
2018-05-04T16:00:21.794Z,19.65
2018-05-04T16:03:45.853Z,16.60
2018-05-04T16:07:09.208Z,15.83
2018-05-04T16:10:32.489Z,17.50
2018-05-04T16:13:55.841Z,15.80
2018-05-04T16:17:19.208Z,16.63
2018-05-04T16:20:42.515Z,16.93
2018-05-04T16:24:05.833Z,11.60
2018-05-04T16:27:29.147Z,16.23
2018-05-04T16:30:52.508Z,14.83
2018-05-04T16:34:15.786Z,14.63
2018-05-04T16:37:39.136Z,15.23
2018-05-04T16:41:02.494Z,16.20
2018-05-04T16:44:25.887Z,17.13
2018-05-04T16:47:55.322Z,17.67
2018-05-04T16:51:18.711Z,15.53
2018-05-04T16:54:42.850Z,15.83
2018-05-04T16:58:06.200Z,16.20
2018-05-04T17:01:30.263Z,15.87
2018-05-04T17:04:53.550Z,16.40
2018-05-04T17:08:16.902Z,16.03
2018-05-04T17:11:40.423Z,16.23
2018-05-04T17:15:03.733Z,15.50
2018-05-04T17:18:27.839Z,16.23
2018-05-04T17:21:52.232Z,15.40
2018-05-04T17:25:15.597Z,16.23
2018-05-04T17:28:38.990Z,16.57
2018-05-04T17:32:02.307Z,16.87
2018-05-04T17:35:25.657Z,14.80
2018-05-04T17:38:48.940Z,15.03
2018-05-04T17:42:12.314Z,15.87
2018-05-04T17:45:35.633Z,15.70
2018-05-04T17:48:58.927Z,16.67
2018-05-04T17:52:22.206Z,15.73
2018-05-04T17:55:45.533Z,16.00
2018-05-04T17:59:09.679Z,15.40
2018-05-04T18:02:33.087Z,14.93
2018-05-04T18:05:56.375Z,15.73
2018-05-04T18:09:19.718Z,15.17
2018-05-04T18:12:43.068Z,15.27
2018-05-04T18:16:06.363Z,16.00
2018-05-04T18:19:29.728Z,15.57
2018-05-04T18:22:53.092Z,15.17
2018-05-04T18:26:16.681Z,15.37
2018-05-04T18:29:43.991Z,15.80
2018-05-04T18:33:07.399Z,16.47
2018-05-04T18:36:32.551Z,15.57
2018-05-04T18:39:55.837Z,15.70
2018-05-04T18:43:19.343Z,15.77
2018-05-04T18:46:42.689Z,15.70
2018-05-04T18:50:06.164Z,15.30
2018-05-04T18:53:30.284Z,15.67
2018-05-04T18:56:53.674Z,15.80
2018-05-04T19:00:18.431Z,16.07
2018-05-04T19:03:41.827Z,15.17
2018-05-04T19:07:06.742Z,16.80
2018-05-04T19:10:30.097Z,16.07
2018-05-04T19:13:53.498Z,15.40
2018-05-04T19:17:17.756Z,15.97
2018-05-04T19:20:42.053Z,14.37
2018-05-04T19:24:06.099Z,16.77
2018-05-04T19:27:29.454Z,16.50
2018-05-04T19:30:52.876Z,16.53
2018-05-04T19:34:16.227Z,15.93
2018-05-04T19:37:39.535Z,15.90
2018-05-04T19:41:03.020Z,15.17
2018-05-04T19:44:26.406Z,14.27
2018-05-04T19:47:49.731Z,15.83
2018-05-04T19:51:13.090Z,15.93
2018-05-04T19:54:36.449Z,15.87
2018-05-04T19:57:59.761Z,15.50
2018-05-04T20:01:23.081Z,15.37
2018-05-04T20:04:46.367Z,15.33
2018-05-04T20:08:09.665Z,15.13
2018-05-04T20:11:33.003Z,15.50
2018-05-04T20:14:56.333Z,15.50
2018-05-04T20:18:21.195Z,16.10
2018-05-04T20:21:44.571Z,16.60
2018-05-04T20:25:08.691Z,16.27
2018-05-04T20:28:32.003Z,16.57
2018-05-04T20:31:55.331Z,16.20
2018-05-04T20:35:18.692Z,16.17
2018-05-04T20:38:42.009Z,15.87
2018-05-04T20:42:06.205Z,16.50
2018-05-04T20:45:29.502Z,15.70
2018-05-04T20:48:52.890Z,16.27
2018-05-04T20:52:17.013Z,15.17
2018-05-04T20:55:40.386Z,17.10
2018-05-04T20:59:03.735Z,15.47
2018-05-04T21:02:27.070Z,16.83
2018-05-04T21:05:50.363Z,16.13
2018-05-04T21:09:13.791Z,15.40
2018-05-04T21:12:37.131Z,16.27
2018-05-04T21:16:00.436Z,16.00
2018-05-04T21:19:23.741Z,16.00
2018-05-04T21:22:48.600Z,15.33
2018-05-04T21:26:11.926Z,15.40
2018-05-04T21:29:36.045Z,15.83
2018-05-04T21:32:59.437Z,15.60
2018-05-04T21:36:22.800Z,15.60
2018-05-04T21:39:46.916Z,15.10
2018-05-04T21:43:10.249Z,15.03
2018-05-04T21:46:33.573Z,15.73
2018-05-04T21:49:56.951Z,14.97
2018-05-04T21:53:21.075Z,14.83
2018-05-04T21:56:44.419Z,15.50
2018-05-04T22:00:07.701Z,15.83
2018-05-04T22:03:30.987Z,16.10
2018-05-04T22:06:54.345Z,15.13
2018-05-04T22:10:17.678Z,16.30
2018-05-04T22:13:41.789Z,17.07
2018-05-04T22:17:05.091Z,15.33
2018-05-04T22:20:28.428Z,15.90
2018-05-04T22:23:52.716Z,17.10
2018-05-04T22:27:16.038Z,16.67
2018-05-04T22:30:39.371Z,16.80
2018-05-04T22:34:02.686Z,16.93
2018-05-04T22:37:26.725Z,16.93
2018-05-04T22:40:50.108Z,17.27
2018-05-04T22:44:13.698Z,16.90
2018-05-04T22:47:37.022Z,16.60
2018-05-04T22:51:00.332Z,17.73
2018-05-04T22:54:23.818Z,17.63
2018-05-04T22:57:47.091Z,17.20
2018-05-04T23:01:10.610Z,18.07
2018-05-04T23:04:33.896Z,18.07
2018-05-04T23:07:57.285Z,18.03
2018-05-04T23:11:21.379Z,17.43
2018-05-04T23:14:45.496Z,18.43
2018-05-04T23:18:08.900Z,18.07
2018-05-04T23:21:32.991Z,17.57
2018-05-04T23:24:56.335Z,18.00
2018-05-04T23:28:21.390Z,18.60
2018-05-04T23:31:45.005Z,19.20
2018-05-04T23:35:09.123Z,17.90
2018-05-04T23:38:32.541Z,17.60
2018-05-04T23:41:55.895Z,19.03
2018-05-04T23:45:19.217Z,19.40
2018-05-04T23:48:43.270Z,18.67
2018-05-04T23:52:06.617Z,18.40
2018-05-04T23:55:30.768Z,19.40
2018-05-04T23:58:54.913Z,19.37
